createdAt,value
2022-12-26T00:02:14.034Z,273.90
2022-12-26T00:04:48.129Z,369.90
2022-12-26T00:07:21.433Z,322.48
2022-12-26T00:09:50.132Z,323.73
2022-12-26T00:12:18.839Z,291.60
2022-12-26T00:14:49.129Z,372.02
2022-12-26T00:17:17.767Z,293.13
2022-12-26T00:19:46.215Z,319.63
2022-12-26T00:22:15.997Z,367.17
2022-12-26T00:24:44.672Z,317.35
2022-12-26T00:27:13.084Z,366.58
2022-12-26T00:29:41.674Z,411.75
2022-12-26T00:32:11.598Z,285.48
2022-12-26T00:34:40.356Z,386.30
2022-12-26T00:37:08.909Z,330.75
2022-12-26T00:39:37.419Z,304.30
2022-12-26T00:42:06.247Z,414.15
2022-12-26T00:44:34.913Z,436.27
2022-12-26T00:47:03.514Z,331.38
2022-12-26T00:50:14.118Z,287.25
2022-12-26T00:52:22.080Z,376.45
2022-12-26T00:54:50.660Z,389.33
2022-12-26T00:57:19.228Z,428.63
2022-12-26T00:59:47.702Z,297.63
2022-12-26T01:02:30.155Z,344.38
2022-12-26T01:05:00.342Z,295.27
2022-12-26T01:07:28.732Z,344.25
2022-12-26T01:09:57.403Z,336.83
2022-12-26T01:12:27.359Z,346.67
2022-12-26T01:14:57.584Z,295.83
2022-12-26T01:17:26.179Z,364.80
2022-12-26T01:19:54.693Z,317.05
2022-12-26T01:22:25.452Z,381.48
2022-12-26T01:24:55.787Z,421.63
2022-12-26T01:27:25.714Z,284.85
2022-12-26T01:29:55.264Z,378.33
2022-12-26T01:32:24.119Z,388.48
2022-12-26T01:34:55.578Z,388.58
2022-12-26T01:37:25.888Z,311.15
2022-12-26T01:39:54.775Z,364.98
2022-12-26T01:42:25.141Z,353.58
2022-12-26T01:45:06.093Z,411.60
2022-12-26T01:47:44.899Z,384.80
2022-12-26T01:50:25.937Z,275.45
2022-12-26T01:52:58.058Z,339.08
2022-12-26T01:55:26.727Z,260.85
2022-12-26T01:57:57.570Z,247.05
2022-12-26T02:00:26.152Z,264.67
2022-12-26T02:03:12.454Z,274.85
2022-12-26T02:05:41.494Z,266.83
2022-12-26T02:08:13.212Z,261.95
2022-12-26T02:10:49.704Z,306.33
2022-12-26T02:13:19.198Z,286.38
2022-12-26T02:15:48.276Z,320.48
2022-12-26T02:18:16.884Z,265.50
2022-12-26T02:20:54.533Z,254.27
2022-12-26T02:24:01.444Z,253.75
2022-12-26T02:26:53.247Z,255.35
2022-12-26T02:30:01.495Z,301.42
2022-12-26T02:32:57.628Z,247.50
2022-12-26T02:35:38.137Z,304.15
2022-12-26T02:38:14.289Z,296.40
2022-12-26T02:40:51.024Z,309.80
2022-12-26T02:43:24.465Z,365.63
2022-12-26T02:46:16.584Z,343.80
2022-12-26T02:48:53.026Z,278.63
2022-12-26T02:51:45.368Z,287.70
2022-12-26T02:54:37.504Z,292.33
2022-12-26T02:57:25.165Z,302.25
2022-12-26T03:00:14.555Z,287.05
2022-12-26T03:03:04.418Z,298.33
2022-12-26T03:05:54.829Z,285.65
2022-12-26T03:08:45.702Z,312.85
2022-12-26T03:11:31.989Z,290.45
2022-12-26T03:14:07.657Z,277.85
2022-12-26T03:16:54.061Z,343.48
2022-12-26T03:19:23.643Z,378.40
2022-12-26T03:21:53.890Z,275.52
2022-12-26T03:24:24.225Z,283.38
2022-12-26T03:26:54.578Z,317.30
2022-12-26T03:29:41.558Z,369.88
2022-12-26T03:32:12.008Z,311.25
2022-12-26T03:34:42.876Z,263.13
2022-12-26T03:37:47.859Z,293.02
2022-12-26T03:40:49.184Z,309.80
2022-12-26T03:43:49.629Z,325.42
2022-12-26T03:46:38.573Z,257.95
2022-12-26T03:49:27.781Z,337.65
2022-12-26T03:52:18.440Z,297.00
2022-12-26T03:55:17.742Z,279.45
2022-12-26T03:58:08.319Z,291.85
2022-12-26T04:00:55.305Z,328.30
2022-12-26T04:03:41.482Z,306.17
2022-12-26T04:06:35.392Z,285.45
2022-12-26T04:09:25.473Z,421.10
2022-12-26T04:12:14.755Z,412.73
2022-12-26T04:15:11.848Z,399.35
2022-12-26T04:18:00.829Z,279.23
2022-12-26T04:20:34.764Z,324.58
2022-12-26T04:23:23.053Z,288.20
2022-12-26T04:26:13.417Z,315.00
2022-12-26T04:29:00.706Z,301.45
2022-12-26T04:31:49.777Z,385.85
2022-12-26T04:34:40.973Z,368.33
2022-12-26T04:37:31.037Z,340.63
2022-12-26T04:40:17.801Z,299.48
2022-12-26T04:43:46.638Z,334.65
2022-12-26T04:45:54.385Z,311.10
2022-12-26T04:48:40.492Z,344.25
2022-12-26T04:51:08.895Z,374.98
2022-12-26T04:53:37.557Z,351.23
2022-12-26T04:56:06.330Z,363.70
2022-12-26T04:58:34.731Z,318.42
2022-12-26T05:01:18.534Z,360.20
2022-12-26T05:04:04.553Z,305.13
2022-12-26T05:06:50.624Z,308.73
2022-12-26T05:09:36.521Z,385.80
2022-12-26T05:12:05.570Z,293.60
2022-12-26T05:14:36.198Z,270.83
2022-12-26T05:17:24.812Z,335.92
2022-12-26T05:20:11.187Z,297.00
2022-12-26T05:22:59.204Z,341.50
2022-12-26T05:25:46.536Z,276.98
2022-12-26T05:28:34.219Z,308.13
2022-12-26T05:31:03.192Z,347.13
2022-12-26T05:33:50.650Z,306.80
2022-12-26T05:36:21.222Z,335.38
2022-12-26T05:38:50.223Z,255.25
2022-12-26T05:41:19.543Z,364.88
2022-12-26T05:43:48.004Z,393.23
2022-12-26T05:46:16.791Z,335.70
2022-12-26T05:48:46.875Z,359.02
2022-12-26T05:51:15.283Z,290.00
2022-12-26T05:53:43.964Z,380.17
2022-12-26T05:56:14.853Z,377.65
2022-12-26T05:58:44.002Z,383.92
2022-12-26T06:01:14.218Z,355.08
2022-12-26T06:03:48.821Z,342.48
2022-12-26T06:06:17.916Z,325.63
2022-12-26T06:08:48.418Z,331.85
2022-12-26T06:11:18.184Z,342.60
2022-12-26T06:13:46.942Z,374.08
2022-12-26T06:16:17.585Z,430.35
2022-12-26T06:18:48.361Z,455.67
2022-12-26T06:21:18.594Z,383.95
2022-12-26T06:23:47.509Z,363.33
2022-12-26T06:26:16.895Z,394.23
2022-12-26T06:28:46.870Z,372.50
2022-12-26T06:31:18.519Z,365.48
2022-12-26T06:33:49.523Z,370.20
2022-12-26T06:36:20.164Z,375.45
2022-12-26T06:38:49.033Z,367.48
2022-12-26T06:41:18.806Z,387.08
2022-12-26T06:44:14.439Z,382.40
2022-12-26T06:46:46.583Z,378.83
2022-12-26T06:49:18.620Z,375.60
2022-12-26T06:51:47.617Z,383.33
2022-12-26T06:54:16.539Z,359.92
2022-12-26T06:56:45.239Z,380.85
2022-12-26T06:59:20.362Z,375.08
2022-12-26T07:02:12.407Z,354.30
2022-12-26T07:04:53.617Z,366.02
2022-12-26T07:07:22.304Z,380.98
2022-12-26T07:09:51.385Z,392.58
2022-12-26T07:12:29.830Z,389.17
2022-12-26T07:15:01.514Z,378.00
2022-12-26T07:17:54.598Z,368.02
2022-12-26T07:31:30.235Z,375.02
2022-12-26T07:34:03.935Z,359.15
2022-12-26T07:36:45.489Z,359.38
2022-12-26T07:39:18.328Z,364.52
2022-12-26T07:42:22.692Z,393.38
2022-12-26T07:44:58.319Z,401.42
2022-12-26T07:47:46.835Z,366.10
2022-12-26T07:50:17.377Z,381.10
2022-12-26T07:52:49.211Z,378.20
2022-12-26T07:55:18.835Z,398.45
2022-12-26T07:58:00.930Z,406.30
2022-12-26T08:00:29.881Z,369.98
2022-12-26T08:03:08.627Z,380.08
2022-12-26T08:05:37.875Z,562.15
2022-12-26T08:08:07.312Z,375.08
2022-12-26T08:10:38.614Z,412.52
2022-12-26T08:13:07.886Z,397.85
2022-12-26T08:15:42.117Z,443.80
2022-12-26T08:18:15.077Z,354.40
2022-12-26T08:20:44.183Z,471.38
2022-12-26T08:23:13.269Z,460.67
2022-12-26T08:25:42.062Z,374.40
2022-12-26T08:28:10.517Z,420.38
2022-12-26T08:30:41.419Z,434.38
2022-12-26T08:33:12.329Z,535.05
2022-12-26T08:35:41.584Z,465.17
2022-12-26T08:38:12.522Z,437.30
2022-12-26T08:40:43.688Z,436.45
2022-12-26T08:46:05.038Z,437.00
2022-12-26T08:48:35.631Z,383.83
2022-12-26T08:51:06.693Z,475.00
2022-12-26T08:53:38.096Z,461.15
2022-12-26T08:56:09.087Z,502.63
2022-12-26T08:58:38.495Z,427.05
2022-12-26T09:01:12.725Z,427.42
2022-12-26T09:03:46.210Z,408.38
2022-12-26T09:06:16.486Z,445.70
2022-12-26T09:08:45.242Z,443.63
2022-12-26T09:11:15.999Z,438.88
2022-12-26T09:13:46.003Z,439.50
2022-12-26T09:16:15.941Z,452.67
2022-12-26T09:18:46.623Z,437.33
2022-12-26T09:21:16.895Z,444.58
2022-12-26T09:23:46.092Z,450.40
2022-12-26T09:26:17.294Z,428.17
2022-12-26T09:28:47.248Z,448.17
2022-12-26T09:31:17.600Z,427.98
2022-12-26T09:33:48.456Z,424.70
2022-12-26T09:36:19.370Z,507.40
2022-12-26T09:38:48.675Z,439.55
2022-12-26T09:41:41.838Z,418.15
2022-12-26T09:44:17.565Z,433.05
2022-12-26T09:46:54.089Z,446.90
2022-12-26T09:49:25.497Z,448.60
2022-12-26T09:51:56.731Z,443.30
2022-12-26T09:54:35.874Z,434.52
2022-12-26T09:57:13.179Z,438.35
2022-12-26T09:59:48.729Z,570.78
2022-12-26T10:02:21.664Z,432.00
2022-12-26T10:04:51.774Z,501.98
2022-12-26T10:07:25.987Z,525.47
2022-12-26T10:10:04.146Z,447.42
2022-12-26T10:12:56.276Z,490.92
2022-12-26T10:15:47.908Z,536.10
2022-12-26T10:18:27.100Z,507.70
2022-12-26T10:21:28.991Z,484.40
2022-12-26T10:24:00.956Z,576.55
2022-12-26T10:26:34.148Z,611.95
2022-12-26T10:29:11.483Z,541.65
2022-12-26T10:31:43.757Z,529.47
2022-12-26T10:34:17.701Z,498.42
2022-12-26T10:36:49.987Z,518.47
2022-12-26T10:39:24.553Z,584.22
2022-12-26T10:41:54.929Z,530.20
2022-12-26T10:44:27.554Z,605.22
2022-12-26T10:47:20.116Z,528.88
2022-12-26T10:49:49.715Z,564.15
2022-12-26T10:52:33.120Z,527.22
2022-12-26T10:55:28.468Z,489.20
2022-12-26T10:58:00.236Z,518.60
2022-12-26T11:00:36.779Z,558.28
2022-12-26T11:03:07.970Z,606.50
2022-12-26T11:06:06.337Z,515.58
2022-12-26T11:08:40.887Z,516.88
2022-12-26T11:11:15.952Z,546.63
2022-12-26T11:13:49.350Z,459.70
2022-12-26T11:16:26.867Z,447.52
2022-12-26T11:18:56.191Z,512.67
2022-12-26T11:21:26.396Z,463.98
2022-12-26T11:24:17.903Z,652.45
2022-12-26T11:26:46.944Z,533.60
2022-12-26T11:29:17.653Z,661.78
2022-12-26T11:31:53.138Z,535.00
2022-12-26T11:34:25.813Z,432.73
2022-12-26T11:36:54.564Z,449.20
2022-12-26T11:39:26.478Z,534.70
2022-12-26T11:41:55.498Z,457.10
2022-12-26T11:44:26.649Z,443.90
2022-12-26T11:47:00.148Z,481.90
2022-12-26T11:49:33.512Z,458.55
2022-12-26T11:52:04.401Z,462.23
2022-12-26T11:54:37.608Z,468.08
2022-12-26T11:57:25.216Z,570.22
2022-12-26T12:00:22.262Z,448.27
2022-12-26T12:03:05.146Z,488.17
2022-12-26T12:05:46.919Z,452.13
2022-12-26T12:08:32.773Z,453.67
2022-12-26T12:11:17.993Z,454.40
2022-12-26T12:25:46.799Z,463.23
2022-12-26T12:28:42.247Z,434.13
2022-12-26T12:31:19.997Z,470.00
2022-12-26T12:33:53.496Z,437.92
2022-12-26T12:36:26.024Z,530.67
2022-12-26T12:39:02.079Z,593.28
2022-12-26T12:41:44.251Z,527.20
2022-12-26T12:44:27.116Z,371.88
2022-12-26T12:47:03.642Z,402.17
2022-12-26T12:49:52.323Z,410.23
2022-12-26T12:52:57.549Z,420.77
2022-12-26T12:55:42.555Z,364.55
2022-12-26T12:58:20.789Z,420.27
2022-12-26T13:00:54.869Z,584.33
2022-12-26T13:03:43.644Z,417.58
2022-12-26T13:06:15.066Z,325.10
2022-12-26T13:08:45.863Z,371.60
2022-12-26T13:11:19.457Z,458.33
2022-12-26T13:13:54.037Z,422.70
2022-12-26T13:19:07.432Z,346.25
2022-12-26T13:21:38.704Z,383.17
2022-12-26T13:24:24.477Z,375.38
2022-12-26T13:26:59.098Z,426.58
2022-12-26T13:29:38.252Z,415.60
2022-12-26T13:32:21.195Z,409.08
2022-12-26T13:38:26.329Z,360.17
2022-12-26T13:41:18.438Z,364.48
2022-12-26T13:44:01.595Z,405.77
2022-12-26T13:47:14.640Z,444.27
2022-12-26T13:49:55.853Z,417.33
2022-12-26T13:52:49.714Z,358.08
2022-12-26T13:56:14.849Z,386.42
2022-12-26T13:59:07.551Z,407.55
2022-12-26T14:02:07.886Z,479.15
2022-12-26T14:04:53.564Z,414.35
2022-12-26T14:07:29.059Z,440.85
2022-12-26T14:10:02.996Z,445.02
2022-12-26T14:12:46.043Z,469.20
2022-12-26T14:15:28.934Z,454.58
2022-12-26T14:18:22.277Z,458.58
2022-12-26T14:21:00.218Z,586.78
2022-12-26T14:23:37.627Z,578.40
2022-12-26T14:26:12.408Z,431.85
2022-12-26T14:28:55.741Z,451.35
2022-12-26T14:31:31.542Z,458.08
2022-12-26T14:34:15.158Z,452.00
2022-12-26T14:36:51.978Z,451.73
2022-12-26T14:39:29.989Z,458.08
2022-12-26T14:42:36.385Z,456.27
2022-12-26T14:45:06.917Z,450.02
2022-12-26T14:47:39.714Z,445.02
2022-12-26T14:50:37.546Z,447.65
2022-12-26T14:53:33.241Z,449.17
2022-12-26T14:56:03.834Z,443.25
2022-12-26T14:58:43.734Z,463.17
2022-12-26T15:01:52.794Z,447.00
2022-12-26T15:04:43.734Z,435.08
2022-12-26T15:07:47.407Z,435.90
2022-12-26T15:10:53.082Z,462.60
2022-12-26T15:14:09.856Z,472.13
2022-12-26T15:16:57.223Z,470.25
2022-12-26T15:19:57.580Z,442.38
2022-12-26T15:23:06.913Z,561.45
2022-12-26T15:26:03.058Z,433.25
2022-12-26T15:29:14.695Z,505.23
2022-12-26T15:32:01.332Z,437.17
2022-12-26T15:34:43.165Z,442.23
2022-12-26T15:37:22.295Z,478.80
2022-12-26T15:39:55.035Z,490.40
2022-12-26T15:42:38.559Z,638.65
2022-12-26T15:45:28.774Z,500.30
2022-12-26T15:48:03.679Z,450.70
2022-12-26T15:50:34.593Z,436.73
2022-12-26T15:53:33.240Z,434.73
2022-12-26T15:56:17.049Z,458.67
2022-12-26T16:02:02.125Z,448.27
2022-12-26T16:05:09.792Z,486.95
2022-12-26T16:09:01.514Z,434.13
2022-12-26T16:14:07.246Z,454.25
2022-12-26T16:16:45.618Z,451.00
2022-12-26T16:24:13.487Z,525.28
2022-12-26T16:27:10.290Z,449.75
2022-12-26T16:29:54.372Z,471.25
2022-12-26T16:32:36.585Z,437.08
2022-12-26T16:45:27.846Z,459.52
2022-12-26T16:47:57.138Z,474.13
2022-12-26T16:50:28.696Z,481.45
2022-12-26T16:53:09.931Z,447.67
2022-12-26T16:55:42.666Z,445.08
2022-12-26T16:58:24.536Z,471.20
2022-12-26T17:01:14.222Z,448.70
2022-12-26T17:03:50.948Z,447.40
2022-12-26T17:06:25.005Z,449.02
2022-12-26T17:09:17.224Z,449.77
2022-12-26T17:11:52.761Z,482.65
2022-12-26T17:14:38.079Z,468.50
2022-12-26T17:17:48.534Z,459.73
2022-12-26T17:21:18.236Z,459.08
2022-12-26T17:23:49.976Z,466.08
2022-12-26T17:26:26.108Z,456.15
2022-12-26T17:29:01.124Z,459.95
2022-12-26T17:31:41.532Z,469.10
2022-12-26T17:34:18.048Z,444.80
2022-12-26T17:37:17.860Z,469.38
2022-12-26T17:40:15.150Z,466.75
2022-12-26T17:43:20.524Z,455.42
2022-12-26T17:45:49.855Z,454.52
2022-12-26T17:48:25.281Z,474.50
2022-12-26T17:50:59.115Z,484.63
2022-12-26T17:53:32.418Z,484.35
2022-12-26T17:56:03.849Z,485.95
2022-12-26T17:58:48.907Z,511.85
2022-12-26T18:01:21.871Z,536.38
2022-12-26T18:03:55.316Z,484.25
2022-12-26T18:06:27.525Z,576.45
2022-12-26T18:09:00.747Z,526.85
2022-12-26T18:11:30.977Z,545.75
2022-12-26T18:14:02.198Z,529.17
2022-12-26T18:16:45.476Z,549.67
2022-12-26T18:19:31.629Z,603.60
2022-12-26T18:22:01.953Z,527.83
2022-12-26T18:24:34.033Z,591.58
2022-12-26T18:27:02.658Z,567.92
2022-12-26T18:29:41.027Z,463.90
2022-12-26T18:32:27.165Z,566.22
2022-12-26T18:35:39.733Z,581.75
2022-12-26T18:38:44.010Z,551.80
2022-12-26T18:45:18.905Z,584.40
2022-12-26T18:47:27.252Z,521.70
2022-12-26T18:52:29.996Z,486.58
2022-12-26T18:55:00.272Z,514.28
2022-12-26T18:57:28.756Z,535.38
2022-12-26T18:59:57.889Z,543.65
2022-12-26T19:02:27.799Z,576.30
2022-12-26T19:04:56.788Z,520.30
2022-12-26T19:07:28.098Z,608.63
2022-12-26T19:09:59.469Z,578.28
2022-12-26T19:12:30.914Z,502.00
2022-12-26T19:15:00.112Z,446.65
2022-12-26T19:17:31.096Z,531.45
2022-12-26T19:20:08.753Z,545.80
2022-12-26T19:22:37.979Z,590.85
2022-12-26T19:25:08.677Z,588.58
2022-12-26T19:27:39.467Z,550.72
2022-12-26T19:30:10.326Z,539.33
2022-12-26T19:32:39.497Z,535.13
2022-12-26T19:35:10.549Z,510.60
2022-12-26T19:37:39.362Z,539.58
2022-12-26T19:40:10.013Z,517.95
2022-12-26T19:42:40.987Z,510.85
2022-12-26T19:45:13.065Z,525.42
2022-12-26T19:47:43.088Z,554.42
2022-12-26T19:50:13.282Z,558.15
2022-12-26T19:52:46.082Z,684.53
2022-12-26T19:55:15.547Z,518.67
2022-12-26T19:57:46.764Z,584.08
2022-12-26T20:00:16.427Z,489.10
2022-12-26T20:02:46.384Z,495.27
2022-12-26T20:05:15.696Z,497.90
2022-12-26T20:07:45.336Z,524.85
2022-12-26T20:10:15.371Z,488.58
2022-12-26T20:12:45.728Z,533.95
2022-12-26T20:15:15.415Z,529.80
2022-12-26T20:17:49.329Z,532.60
2022-12-26T20:20:18.661Z,519.88
2022-12-26T20:22:53.221Z,535.63
2022-12-26T20:25:25.363Z,471.88
2022-12-26T20:42:45.830Z,447.30
2022-12-26T20:45:20.525Z,535.92
2022-12-26T20:51:33.175Z,445.08
2022-12-26T20:54:21.056Z,443.75
2022-12-26T20:56:58.744Z,526.20
2022-12-26T20:59:49.993Z,432.33
2022-12-26T21:03:02.467Z,459.08
2022-12-26T21:13:23.743Z,437.05
2022-12-26T21:15:59.792Z,444.83
2022-12-26T21:21:17.505Z,520.73
2022-12-26T21:23:48.535Z,451.97
2022-12-26T21:26:18.125Z,528.03
2022-12-26T21:28:48.645Z,454.33
2022-12-26T21:31:37.655Z,459.80
2022-12-26T21:34:08.921Z,430.77
2022-12-26T21:36:39.831Z,522.50
2022-12-26T21:39:09.566Z,487.67
2022-12-26T21:41:46.435Z,452.98
2022-12-26T21:44:15.573Z,445.15
2022-12-26T21:46:47.420Z,508.27
2022-12-26T21:49:20.874Z,456.63
2022-12-26T21:51:52.227Z,403.88
2022-12-26T21:54:48.031Z,462.45
2022-12-26T21:57:18.296Z,488.83
2022-12-26T22:00:01.002Z,505.83
2022-12-26T22:02:58.621Z,440.20
2022-12-26T22:05:29.621Z,409.17
2022-12-26T22:08:00.024Z,370.50
2022-12-26T22:10:50.846Z,448.52
2022-12-26T22:13:22.496Z,433.27
2022-12-26T22:16:07.421Z,429.30
2022-12-26T22:21:10.644Z,399.00
2022-12-26T22:23:43.327Z,363.85
2022-12-26T22:26:13.575Z,439.05
2022-12-26T22:28:42.840Z,426.42
2022-12-26T22:31:21.310Z,411.73
2022-12-26T22:33:55.635Z,387.77
2022-12-26T22:36:24.287Z,344.98
2022-12-26T22:38:53.704Z,428.92
2022-12-26T22:41:22.777Z,416.88
2022-12-26T22:43:51.259Z,355.75
2022-12-26T22:46:23.216Z,352.30
2022-12-26T22:48:53.638Z,382.88
2022-12-26T22:51:23.975Z,373.70
2022-12-26T22:53:56.823Z,358.67
2022-12-26T22:56:26.662Z,395.45
2022-12-26T22:58:55.763Z,464.65
2022-12-26T23:01:25.484Z,430.08
2022-12-26T23:03:59.845Z,390.05
2022-12-26T23:06:29.604Z,360.85
2022-12-26T23:09:02.469Z,352.77
2022-12-26T23:11:35.314Z,365.20
2022-12-26T23:14:09.982Z,354.27
2022-12-26T23:16:43.676Z,340.20
2022-12-26T23:19:32.790Z,334.57
2022-12-26T23:22:04.348Z,351.75
2022-12-26T23:24:34.024Z,348.10
2022-12-26T23:27:23.606Z,379.42
2022-12-26T23:30:22.358Z,356.40
2022-12-26T23:32:52.371Z,349.33
2022-12-26T23:35:25.384Z,381.67
2022-12-26T23:37:54.546Z,450.70
2022-12-26T23:40:23.671Z,439.25
2022-12-26T23:42:52.270Z,407.90
2022-12-26T23:45:22.480Z,368.95
2022-12-26T23:47:50.860Z,420.52
2022-12-26T23:50:20.014Z,415.85
2022-12-26T23:52:50.456Z,452.08
2022-12-26T23:55:20.492Z,366.45
2022-12-26T23:57:49.543Z,394.50
